createdAt,value
2018-07-06T00:00:31.254Z,1017.63
2018-07-06T00:01:31.914Z,1017.64
2018-07-06T00:02:31.725Z,1017.66
2018-07-06T00:03:31.067Z,1017.64
2018-07-06T00:04:31.619Z,1017.67
2018-07-06T00:05:30.960Z,1017.65
2018-07-06T00:06:31.786Z,1017.65
2018-07-06T00:07:31.244Z,1017.67
2018-07-06T00:08:53.042Z,1017.63
2018-07-06T00:09:53.329Z,1017.65
2018-07-06T00:11:14.184Z,1017.60
2018-07-06T00:12:14.584Z,1017.60
2018-07-06T00:13:14.854Z,1017.62
2018-07-06T00:14:14.282Z,1017.67
2018-07-06T00:15:14.811Z,1017.64
2018-07-06T00:16:15.269Z,1017.68
2018-07-06T00:17:14.585Z,1017.68
2018-07-06T00:18:14.938Z,1017.70
2018-07-06T00:19:14.421Z,1017.67
2018-07-06T00:20:14.843Z,1017.68
2018-07-06T00:21:14.475Z,1017.68
2018-07-06T00:22:15.037Z,1017.66
2018-07-06T00:23:14.621Z,1017.62
2018-07-06T00:24:14.951Z,1017.59
2018-07-06T00:25:14.431Z,1017.57
2018-07-06T00:26:14.940Z,1017.57
2018-07-06T00:27:14.712Z,1017.55
2018-07-06T00:28:35.419Z,1017.58
2018-07-06T00:30:18.281Z,1017.60
2018-07-06T00:31:18.643Z,1017.68
2018-07-06T00:32:19.173Z,1017.63
2018-07-06T00:33:18.536Z,1017.67
2018-07-06T00:34:40.274Z,1017.68
2018-07-06T00:36:02.049Z,1017.72
2018-07-06T00:37:02.459Z,1017.72
2018-07-06T00:38:02.099Z,1017.72
2018-07-06T00:39:23.542Z,1017.76
2018-07-06T00:40:23.901Z,1017.74
2018-07-06T00:41:24.274Z,1017.78
2018-07-06T00:42:23.801Z,1017.73
2018-07-06T00:43:24.467Z,1017.75
2018-07-06T00:44:24.106Z,1017.78
2018-07-06T00:45:23.550Z,1017.80
2018-07-06T00:46:23.888Z,1017.79
2018-07-06T00:47:24.450Z,1017.84
2018-07-06T00:48:23.773Z,1017.83
2018-07-06T00:49:24.310Z,1017.82
2018-07-06T00:50:23.785Z,1017.79
2018-07-06T00:51:24.013Z,1017.79
2018-07-06T00:52:24.379Z,1017.83
2018-07-06T00:53:23.739Z,1017.82
2018-07-06T00:54:24.085Z,1017.82
2018-07-06T00:55:23.565Z,1017.85
2018-07-06T00:56:23.927Z,1017.82
2018-07-06T00:57:24.308Z,1017.83
2018-07-06T00:58:24.312Z,1017.86
2018-07-06T00:59:23.973Z,1017.88
2018-07-06T01:00:26.007Z,1017.91
2018-07-06T01:01:24.433Z,1017.91
2018-07-06T01:02:23.666Z,1017.92
2018-07-06T01:03:24.233Z,1017.92
2018-07-06T01:04:23.657Z,1017.93
2018-07-06T01:05:24.044Z,1017.95
2018-07-06T01:06:23.506Z,1017.98
2018-07-06T01:07:23.845Z,1018.00
2018-07-06T01:08:24.341Z,1018.02
2018-07-06T01:09:23.559Z,1018.02
2018-07-06T01:10:45.090Z,1018.04
2018-07-06T01:11:45.749Z,1017.98
2018-07-06T01:12:45.076Z,1018.01
2018-07-06T01:13:45.748Z,1018.00
2018-07-06T01:14:45.122Z,1017.99
2018-07-06T01:15:45.456Z,1017.98
2018-07-06T01:16:45.988Z,1017.95
2018-07-06T01:17:45.523Z,1017.95
2018-07-06T01:18:45.941Z,1017.92
2018-07-06T01:19:45.714Z,1017.88
2018-07-06T01:20:45.217Z,1017.94
2018-07-06T01:22:06.701Z,1017.96
2018-07-06T01:23:07.003Z,1018.02
2018-07-06T01:24:07.390Z,1018.01
2018-07-06T01:25:06.854Z,1018.04
2018-07-06T01:26:07.363Z,1018.02
2018-07-06T01:27:07.652Z,1018.03
2018-07-06T01:28:07.147Z,1018.01
2018-07-06T01:29:07.825Z,1018.01
2018-07-06T01:30:07.395Z,1018.07
2018-07-06T01:31:06.945Z,1018.07
2018-07-06T01:32:08.377Z,1018.05
2018-07-06T01:33:06.700Z,1018.03
2018-07-06T01:34:06.959Z,1018.04
2018-07-06T01:35:07.499Z,1018.05
2018-07-06T01:36:06.709Z,1018.03
2018-07-06T01:37:07.247Z,1018.07
2018-07-06T01:38:06.883Z,1018.05
2018-07-06T01:39:07.338Z,1018.03
2018-07-06T01:40:06.984Z,1018.02
2018-07-06T01:41:07.253Z,1018.05
2018-07-06T01:42:07.888Z,1018.02
2018-07-06T01:43:07.469Z,1018.08
2018-07-06T01:44:07.070Z,1017.99
2018-07-06T01:45:07.650Z,1018.03
2018-07-06T01:46:07.020Z,1018.02
2018-07-06T01:47:07.706Z,1018.00
2018-07-06T01:48:07.263Z,1018.01
2018-07-06T01:49:07.822Z,1018.05
2018-07-06T01:50:07.368Z,1018.05
2018-07-06T01:51:07.220Z,1018.04
2018-07-06T01:52:07.541Z,1018.08
2018-07-06T01:53:07.305Z,1018.03
2018-07-06T01:54:07.714Z,1018.04
2018-07-06T01:55:07.235Z,1018.07
2018-07-06T01:56:07.591Z,1018.05
2018-07-06T01:57:07.032Z,1018.05
2018-07-06T01:58:07.507Z,1018.03
2018-07-06T01:59:07.075Z,1018.05
2018-07-06T02:00:07.657Z,1018.02
2018-07-06T02:01:06.930Z,1018.02
2018-07-06T02:02:07.497Z,1018.01
2018-07-06T02:03:07.114Z,1017.99
2018-07-06T02:04:07.542Z,1018.00
2018-07-06T02:05:28.450Z,1018.04
2018-07-06T02:06:29.174Z,1017.98
2018-07-06T02:07:50.167Z,1018.01
2018-07-06T02:08:50.683Z,1018.02
2018-07-06T02:09:50.021Z,1018.00
2018-07-06T02:10:50.515Z,1017.98
2018-07-06T02:11:50.977Z,1018.00
2018-07-06T02:12:50.507Z,1017.95
2018-07-06T02:13:50.128Z,1018.00
2018-07-06T02:14:50.552Z,1018.03
2018-07-06T02:15:51.075Z,1018.00
2018-07-06T02:16:50.519Z,1018.02
2018-07-06T02:17:50.050Z,1018.01
2018-07-06T02:18:50.325Z,1017.97
2018-07-06T02:19:50.755Z,1017.98
2018-07-06T02:20:50.241Z,1017.94
2018-07-06T02:21:50.722Z,1017.95
2018-07-06T02:22:50.249Z,1017.92
2018-07-06T02:23:50.697Z,1017.93
2018-07-06T02:24:50.523Z,1017.95
2018-07-06T02:25:51.089Z,1017.98
2018-07-06T02:27:11.548Z,1018.00
2018-07-06T02:28:11.991Z,1018.00
2018-07-06T02:29:13.053Z,1017.99
2018-07-06T02:30:12.515Z,1017.95
2018-07-06T02:31:12.012Z,1017.98
2018-07-06T02:32:12.505Z,1018.03
2018-07-06T02:33:12.228Z,1018.01
2018-07-06T02:34:11.781Z,1018.04
2018-07-06T02:35:12.082Z,1018.01
2018-07-06T02:36:33.536Z,1017.98
2018-07-06T02:37:34.200Z,1018.02
2018-07-06T02:38:33.691Z,1018.00
2018-07-06T02:39:55.023Z,1017.99
2018-07-06T02:40:55.274Z,1018.00
2018-07-06T02:41:54.801Z,1018.00
2018-07-06T02:42:55.300Z,1018.01
2018-07-06T02:44:02.448Z,1018.00
2018-07-06T02:44:54.858Z,1018.05
2018-07-06T02:45:55.380Z,1018.05
2018-07-06T02:46:55.771Z,1018.03
2018-07-06T02:47:55.285Z,1018.05
2018-07-06T02:48:55.920Z,1018.04
2018-07-06T02:49:55.319Z,1018.04
2018-07-06T02:50:54.826Z,1018.08
2018-07-06T02:51:55.288Z,1018.06
2018-07-06T02:53:28.054Z,1018.11
2018-07-06T02:54:27.534Z,1018.06
2018-07-06T02:55:28.097Z,1018.08
2018-07-06T02:56:27.679Z,1018.08
2018-07-06T02:57:28.057Z,1018.09
2018-07-06T02:58:27.533Z,1018.13
2018-07-06T02:59:28.052Z,1018.10
2018-07-06T03:00:27.628Z,1018.12
2018-07-06T03:01:48.537Z,1018.15
2018-07-06T03:02:49.162Z,1018.19
2018-07-06T03:03:49.716Z,1018.18
2018-07-06T03:04:49.444Z,1018.16
2018-07-06T03:05:48.940Z,1018.18
2018-07-06T03:06:49.335Z,1018.20
2018-07-06T03:07:48.801Z,1018.17
2018-07-06T03:08:49.711Z,1018.17
2018-07-06T03:09:49.734Z,1018.18
2018-07-06T03:10:49.504Z,1018.18
2018-07-06T03:11:49.866Z,1018.18
2018-07-06T03:12:49.417Z,1018.19
2018-07-06T03:13:48.882Z,1018.23
2018-07-06T03:14:49.696Z,1018.25
2018-07-06T03:15:49.377Z,1018.22
2018-07-06T03:16:48.947Z,1018.25
2018-07-06T03:18:32.093Z,1018.22
2018-07-06T03:19:53.703Z,1018.24
2018-07-06T03:20:54.276Z,1018.28
2018-07-06T03:21:54.885Z,1018.28
2018-07-06T03:22:54.201Z,1018.26
2018-07-06T03:23:54.906Z,1018.30
2018-07-06T03:24:54.504Z,1018.26
2018-07-06T03:25:54.156Z,1018.26
2018-07-06T03:26:54.717Z,1018.27
2018-07-06T03:28:15.768Z,1018.24
2018-07-06T03:29:16.310Z,1018.25
2018-07-06T03:30:36.950Z,1018.25
2018-07-06T03:31:37.347Z,1018.25
2018-07-06T03:32:59.393Z,1018.27
2018-07-06T03:33:59.870Z,1018.24
2018-07-06T03:35:20.509Z,1018.29
2018-07-06T03:36:21.011Z,1018.28
2018-07-06T03:37:21.387Z,1018.29
2018-07-06T03:38:20.674Z,1018.25
2018-07-06T03:39:21.202Z,1018.26
2018-07-06T03:40:20.769Z,1018.26
2018-07-06T03:41:21.412Z,1018.27
2018-07-06T03:42:20.914Z,1018.31
2018-07-06T03:43:20.434Z,1018.32
2018-07-06T03:44:20.793Z,1018.33
2018-07-06T03:45:21.568Z,1018.35
2018-07-06T03:46:42.385Z,1018.35
2018-07-06T03:47:43.010Z,1018.34
2018-07-06T03:48:42.709Z,1018.41
2018-07-06T03:49:42.943Z,1018.35
2018-07-06T03:50:42.479Z,1018.39
2018-07-06T03:51:43.096Z,1018.42
2018-07-06T03:52:42.831Z,1018.42
2018-07-06T03:53:42.342Z,1018.42
2018-07-06T03:54:43.013Z,1018.46
2018-07-06T03:55:42.734Z,1018.46
2018-07-06T03:56:42.611Z,1018.49
2018-07-06T03:57:43.411Z,1018.50
2018-07-06T03:58:43.246Z,1018.50
2018-07-06T03:59:42.910Z,1018.54
2018-07-06T04:00:42.359Z,1018.51
2018-07-06T04:01:42.778Z,1018.52
2018-07-06T04:02:42.282Z,1018.51
2018-07-06T04:03:42.574Z,1018.56
2018-07-06T04:04:42.108Z,1018.54
2018-07-06T04:05:42.944Z,1018.58
2018-07-06T04:06:42.366Z,1018.62
2018-07-06T04:07:42.808Z,1018.59
2018-07-06T04:08:42.226Z,1018.65
2018-07-06T04:09:43.002Z,1018.67
2018-07-06T04:10:42.468Z,1018.61
2018-07-06T04:11:43.067Z,1018.60
2018-07-06T04:12:42.744Z,1018.62
2018-07-06T04:13:42.537Z,1018.63
2018-07-06T04:14:42.878Z,1018.66
2018-07-06T04:16:03.691Z,1018.65
2018-07-06T04:17:04.060Z,1018.63
2018-07-06T04:18:25.898Z,1018.64
2018-07-06T04:19:26.250Z,1018.65
2018-07-06T04:20:26.594Z,1018.64
2018-07-06T04:21:26.194Z,1018.64
2018-07-06T04:22:26.682Z,1018.61
2018-07-06T04:23:26.241Z,1018.62
2018-07-06T04:24:25.986Z,1018.61
2018-07-06T04:25:26.511Z,1018.66
2018-07-06T04:26:26.141Z,1018.65
2018-07-06T04:27:26.659Z,1018.66
2018-07-06T04:28:26.426Z,1018.67
2018-07-06T04:29:26.082Z,1018.68
2018-07-06T04:30:26.758Z,1018.66
2018-07-06T04:31:26.279Z,1018.69
2018-07-06T04:32:26.753Z,1018.69
2018-07-06T04:33:26.427Z,1018.69
2018-07-06T04:34:26.259Z,1018.73
2018-07-06T04:35:26.743Z,1018.66
2018-07-06T04:36:26.200Z,1018.72
2018-07-06T04:37:26.744Z,1018.71
2018-07-06T04:38:26.278Z,1018.75
2018-07-06T04:39:25.840Z,1018.71
2018-07-06T04:40:47.800Z,1018.67
2018-07-06T04:41:48.664Z,1018.72
2018-07-06T04:42:48.190Z,1018.74
2018-07-06T04:43:47.773Z,1018.72
2018-07-06T04:44:48.107Z,1018.76
2018-07-06T04:45:48.540Z,1018.79
2018-07-06T04:46:48.655Z,1018.76
2018-07-06T04:47:48.409Z,1018.77
2018-07-06T04:49:09.508Z,1018.80
2018-07-06T04:50:31.669Z,1018.79
2018-07-06T04:51:32.528Z,1018.79
2018-07-06T04:52:31.981Z,1018.81
2018-07-06T04:53:31.516Z,1018.78
2018-07-06T04:54:32.139Z,1018.82
2018-07-06T04:55:31.859Z,1018.80
2018-07-06T04:56:32.314Z,1018.77
2018-07-06T04:57:31.934Z,1018.77
2018-07-06T04:58:32.417Z,1018.77
2018-07-06T04:59:31.784Z,1018.80
2018-07-06T05:00:32.336Z,1018.82
2018-07-06T05:01:31.895Z,1018.84
2018-07-06T05:02:31.496Z,1018.81
2018-07-06T05:03:32.284Z,1018.79
2018-07-06T05:04:31.830Z,1018.80
2018-07-06T05:05:31.476Z,1018.83
2018-07-06T05:06:32.027Z,1018.82
2018-07-06T05:07:31.752Z,1018.83
2018-07-06T05:08:32.560Z,1018.80
2018-07-06T05:09:32.308Z,1018.84
2018-07-06T05:10:32.133Z,1018.88
2018-07-06T05:11:31.503Z,1018.87
2018-07-06T05:12:31.987Z,1018.89
2018-07-06T05:13:31.636Z,1018.87
2018-07-06T05:14:32.331Z,1018.84
2018-07-06T05:15:32.006Z,1018.88
2018-07-06T05:16:31.736Z,1018.86
2018-07-06T05:17:32.442Z,1018.87
2018-07-06T05:18:31.912Z,1018.88
2018-07-06T05:19:31.340Z,1018.89
2018-07-06T05:21:14.566Z,1018.88
2018-07-06T05:22:15.281Z,1018.87
2018-07-06T05:23:14.827Z,1018.87
2018-07-06T05:24:37.008Z,1018.82
2018-07-06T05:25:37.816Z,1018.87
2018-07-06T05:26:37.604Z,1018.88
2018-07-06T05:27:37.141Z,1018.87
2018-07-06T05:28:37.871Z,1018.89
2018-07-06T05:29:37.674Z,1018.92
2018-07-06T05:30:37.354Z,1018.95
2018-07-06T05:31:37.109Z,1018.92
2018-07-06T05:32:37.862Z,1018.94
2018-07-06T05:33:58.919Z,1018.97
2018-07-06T05:34:59.678Z,1018.99
2018-07-06T05:35:59.416Z,1018.99
2018-07-06T05:36:59.090Z,1019.01
2018-07-06T05:38:21.277Z,1018.98
2018-07-06T05:39:22.133Z,1018.96
2018-07-06T05:40:21.579Z,1018.97
2018-07-06T05:41:21.260Z,1018.98
2018-07-06T05:42:22.322Z,1018.99
2018-07-06T05:43:45.733Z,1019.06
2018-07-06T05:44:47.375Z,1019.04
2018-07-06T05:45:46.100Z,1019.05
2018-07-06T05:46:45.971Z,1019.06
2018-07-06T05:47:45.830Z,1019.08
2018-07-06T05:48:46.613Z,1019.04
2018-07-06T05:49:46.639Z,1019.04
2018-07-06T05:50:46.423Z,1019.06
2018-07-06T05:52:07.262Z,1019.10
2018-07-06T05:53:08.127Z,1019.08
2018-07-06T05:54:29.463Z,1019.12
2018-07-06T05:55:30.059Z,1019.13
2018-07-06T05:56:29.761Z,1019.14
2018-07-06T05:57:29.430Z,1019.12
2018-07-06T05:58:30.139Z,1019.10
2018-07-06T05:59:29.991Z,1019.13
2018-07-06T06:00:29.630Z,1019.14
2018-07-06T06:01:29.647Z,1019.13
2018-07-06T06:02:30.381Z,1019.13
2018-07-06T06:03:30.001Z,1019.15
2018-07-06T06:04:29.717Z,1019.15
2018-07-06T06:05:29.519Z,1019.15
2018-07-06T06:06:29.881Z,1019.17
2018-07-06T06:07:29.437Z,1019.21
2018-07-06T06:08:29.911Z,1019.23
2018-07-06T06:09:29.384Z,1019.28
2018-07-06T06:10:30.080Z,1019.23
2018-07-06T06:11:50.910Z,1019.28
2018-07-06T06:12:51.937Z,1019.22
2018-07-06T06:13:51.546Z,1019.25
2018-07-06T06:14:51.301Z,1019.25
2018-07-06T06:16:33.701Z,1019.25
2018-07-06T06:18:20.614Z,1019.28
2018-07-06T06:19:21.110Z,1019.29
2018-07-06T06:20:42.257Z,1019.31
2018-07-06T06:21:42.998Z,1019.34
2018-07-06T06:22:43.110Z,1019.30
2018-07-06T06:23:42.755Z,1019.30
2018-07-06T06:25:25.800Z,1019.33
2018-07-06T06:26:26.521Z,1019.28
2018-07-06T06:27:26.601Z,1019.33
2018-07-06T06:28:26.321Z,1019.30
2018-07-06T06:29:25.950Z,1019.36
2018-07-06T06:30:25.567Z,1019.38
2018-07-06T06:31:26.125Z,1019.36
2018-07-06T06:32:25.649Z,1019.37
2018-07-06T06:33:26.664Z,1019.40
2018-07-06T06:34:25.458Z,1019.40
2018-07-06T06:35:26.250Z,1019.42
2018-07-06T06:36:25.924Z,1019.38
2018-07-06T06:37:25.717Z,1019.39
2018-07-06T06:38:47.039Z,1019.41
2018-07-06T06:39:47.833Z,1019.42
2018-07-06T06:40:47.390Z,1019.42
2018-07-06T06:41:47.057Z,1019.45
2018-07-06T06:42:47.781Z,1019.44
2018-07-06T06:43:47.206Z,1019.51
2018-07-06T06:45:09.175Z,1019.54
2018-07-06T06:46:31.568Z,1019.52
2018-07-06T06:47:32.252Z,1019.57
2018-07-06T06:49:15.574Z,1019.64
2018-07-06T06:50:15.147Z,1019.64
2018-07-06T06:51:36.808Z,1019.67
2018-07-06T06:52:37.670Z,1019.67
2018-07-06T06:53:58.583Z,1019.71
2018-07-06T06:54:59.275Z,1019.71
2018-07-06T06:55:58.907Z,1019.69
2018-07-06T06:56:58.642Z,1019.72
2018-07-06T06:57:59.328Z,1019.78
2018-07-06T06:58:58.815Z,1019.75
2018-07-06T06:59:58.617Z,1019.73
2018-07-06T07:00:59.338Z,1019.76
2018-07-06T07:01:59.053Z,1019.73
2018-07-06T07:02:58.938Z,1019.71
2018-07-06T07:05:02.739Z,1019.74
2018-07-06T07:06:04.017Z,1019.76
2018-07-06T07:07:02.879Z,1019.70
2018-07-06T07:08:03.441Z,1019.74
2018-07-06T07:09:03.184Z,1019.70
2018-07-06T07:10:02.912Z,1019.70
2018-07-06T07:11:03.403Z,1019.75
2018-07-06T07:12:03.093Z,1019.76
2018-07-06T07:13:03.622Z,1019.75
2018-07-06T07:14:03.082Z,1019.75
2018-07-06T07:15:02.971Z,1019.75
2018-07-06T07:16:25.458Z,1019.72
2018-07-06T07:17:26.221Z,1019.73
2018-07-06T07:19:09.188Z,1019.77
2018-07-06T07:20:09.960Z,1019.78
2018-07-06T07:21:09.897Z,1019.80
2018-07-06T07:22:31.182Z,1019.76
2018-07-06T07:23:31.995Z,1019.79
2018-07-06T07:24:31.494Z,1019.83
2018-07-06T07:25:30.950Z,1019.79
2018-07-06T07:27:14.490Z,1019.81
2018-07-06T07:28:36.450Z,1019.85
2018-07-06T07:29:37.160Z,1019.84
2018-07-06T07:30:36.931Z,1019.84
2018-07-06T07:31:36.538Z,1019.87
2018-07-06T07:32:37.556Z,1019.88
2018-07-06T07:33:37.462Z,1019.87
2018-07-06T07:34:36.947Z,1019.93
2018-07-06T07:35:36.355Z,1019.96
2018-07-06T07:36:36.856Z,1020.00
2018-07-06T07:37:37.343Z,1019.95
2018-07-06T07:38:37.100Z,1019.95
2018-07-06T07:39:36.717Z,1019.97
2018-07-06T07:40:58.558Z,1019.96
2018-07-06T07:41:58.963Z,1020.01
2018-07-06T07:42:59.489Z,1019.95
2018-07-06T07:44:20.385Z,1019.98
2018-07-06T07:45:21.004Z,1019.98
2018-07-06T07:46:20.669Z,1019.97
2018-07-06T07:47:21.400Z,1019.94
2018-07-06T07:48:42.683Z,1019.99
2018-07-06T07:49:43.288Z,1019.98
2018-07-06T07:50:43.289Z,1019.94
2018-07-06T07:52:04.878Z,1019.94
2018-07-06T07:53:05.387Z,1019.97
2018-07-06T07:54:04.892Z,1019.95
2018-07-06T07:55:05.561Z,1019.98
2018-07-06T07:56:05.338Z,1019.97
2018-07-06T07:57:05.144Z,1019.94
2018-07-06T07:58:05.136Z,1019.93
2018-07-06T07:59:04.611Z,1019.92
2018-07-06T08:00:05.316Z,1019.90
2018-07-06T08:01:05.064Z,1019.93
2018-07-06T08:02:06.159Z,1019.89
2018-07-06T08:03:04.673Z,1019.91
2018-07-06T08:04:05.402Z,1019.93
2018-07-06T08:05:04.990Z,1019.88
2018-07-06T08:06:26.328Z,1019.92
2018-07-06T08:07:27.337Z,1019.86
2018-07-06T08:08:26.963Z,1019.87
2018-07-06T08:09:47.920Z,1019.89
2018-07-06T08:10:48.347Z,1019.90
2018-07-06T08:11:47.999Z,1019.92
2018-07-06T08:12:48.568Z,1019.94
2018-07-06T08:13:48.222Z,1019.96
2018-07-06T08:14:49.032Z,1019.91
2018-07-06T08:15:48.826Z,1019.94
2018-07-06T08:17:09.734Z,1019.94
2018-07-06T08:18:31.540Z,1019.96
2018-07-06T08:19:32.051Z,1019.88
2018-07-06T08:20:31.741Z,1019.95
2018-07-06T08:21:31.678Z,1019.92
2018-07-06T08:22:32.596Z,1019.87
2018-07-06T08:23:53.961Z,1019.87
2018-07-06T08:25:16.498Z,1019.87
2018-07-06T08:26:17.425Z,1019.88
2018-07-06T08:27:17.742Z,1019.85
2018-07-06T08:28:38.813Z,1019.92
2018-07-06T08:29:38.679Z,1019.88
2018-07-06T08:30:38.612Z,1019.80
2018-07-06T08:31:38.448Z,1019.83
2018-07-06T08:32:38.293Z,1019.81
2018-07-06T08:33:38.938Z,1019.95
2018-07-06T08:34:38.583Z,1019.91
2018-07-06T08:35:38.210Z,1019.86
2018-07-06T08:37:00.515Z,1019.91
2018-07-06T08:38:00.167Z,1019.92
2018-07-06T08:39:00.951Z,1019.90
2018-07-06T08:40:00.803Z,1019.92
2018-07-06T08:41:00.632Z,1019.87
2018-07-06T08:42:21.276Z,1019.89
2018-07-06T08:43:22.062Z,1019.88
2018-07-06T08:44:43.084Z,1019.91
2018-07-06T08:45:43.939Z,1019.97
2018-07-06T08:46:43.671Z,1019.94
2018-07-06T08:47:43.441Z,1019.99
2018-07-06T08:49:48.675Z,1019.95
2018-07-06T08:50:49.316Z,1020.04
2018-07-06T08:51:49.079Z,1020.00
2018-07-06T08:52:49.777Z,1020.01
2018-07-06T08:53:49.337Z,1020.04
2018-07-06T08:54:49.056Z,1020.06
2018-07-06T08:55:48.836Z,1020.08
2018-07-06T08:56:49.419Z,1020.06
2018-07-06T08:57:49.084Z,1020.07
2018-07-06T08:58:48.576Z,1020.10
2018-07-06T08:59:49.345Z,1020.08
2018-07-06T09:00:49.307Z,1020.09
2018-07-06T09:01:49.096Z,1020.10
2018-07-06T09:02:49.987Z,1020.09
2018-07-06T09:03:49.739Z,1020.10
2018-07-06T09:04:49.798Z,1020.05
2018-07-06T09:05:49.449Z,1020.04
2018-07-06T09:06:49.690Z,1020.03
2018-07-06T09:07:49.213Z,1019.99
2018-07-06T09:08:49.236Z,1019.99
2018-07-06T09:10:12.405Z,1020.07
2018-07-06T09:11:35.396Z,1020.04
2018-07-06T09:12:35.920Z,1020.04
2018-07-06T09:13:57.902Z,1019.99
2018-07-06T09:14:57.423Z,1019.98
2018-07-06T09:15:57.872Z,1019.95
2018-07-06T09:17:00.050Z,1020.00
2018-07-06T09:17:58.044Z,1019.98
2018-07-06T09:18:58.040Z,1020.00
2018-07-06T09:19:57.992Z,1019.92
2018-07-06T09:20:57.866Z,1019.91
2018-07-06T09:21:57.716Z,1019.98
2018-07-06T09:22:57.603Z,1019.99
2018-07-06T09:23:58.007Z,1019.98
2018-07-06T09:24:57.692Z,1019.99
2018-07-06T09:25:57.708Z,1020.01
2018-07-06T09:26:58.376Z,1020.00
2018-07-06T09:27:58.044Z,1019.99
2018-07-06T09:28:57.936Z,1020.08
2018-07-06T09:29:58.980Z,1019.97
2018-07-06T09:30:57.985Z,1020.03
2018-07-06T09:31:57.349Z,1019.96
2018-07-06T09:32:58.067Z,1019.98
2018-07-06T09:33:57.908Z,1019.99
2018-07-06T09:34:57.876Z,1019.96
2018-07-06T09:36:19.081Z,1019.98
2018-07-06T09:37:20.077Z,1020.01
2018-07-06T09:38:20.801Z,1020.02
2018-07-06T09:39:19.538Z,1020.02
2018-07-06T09:40:20.649Z,1020.03
2018-07-06T09:41:40.820Z,1019.98
2018-07-06T09:42:41.466Z,1020.05
2018-07-06T09:43:40.827Z,1020.02
2018-07-06T09:44:41.490Z,1020.00
2018-07-06T09:46:02.149Z,1020.06
2018-07-06T09:47:02.639Z,1019.96
2018-07-06T09:48:02.479Z,1020.03
2018-07-06T09:49:03.672Z,1020.01
2018-07-06T09:50:02.530Z,1020.01
2018-07-06T09:51:02.243Z,1019.99
2018-07-06T09:52:02.987Z,1019.92
2018-07-06T09:53:02.758Z,1019.98
2018-07-06T09:54:02.426Z,1019.93
2018-07-06T09:55:02.453Z,1019.91
2018-07-06T09:56:02.123Z,1019.96
2018-07-06T09:57:02.810Z,1020.08
2018-07-06T09:58:45.143Z,1019.99
2018-07-06T09:59:45.886Z,1019.97
2018-07-06T10:00:45.477Z,1019.99
2018-07-06T10:02:07.449Z,1019.99
2018-07-06T10:03:08.755Z,1019.98
2018-07-06T10:04:07.412Z,1020.00
2018-07-06T10:05:08.146Z,1019.96
2018-07-06T10:06:07.600Z,1019.96
2018-07-06T10:07:08.426Z,1019.97
2018-07-06T10:08:08.252Z,1019.98
2018-07-06T10:09:08.026Z,1019.96
2018-07-06T10:10:08.831Z,1019.98
2018-07-06T10:11:07.845Z,1019.99
2018-07-06T10:12:07.559Z,1019.95
2018-07-06T10:13:08.040Z,1019.89
2018-07-06T10:14:09.170Z,1019.99
2018-07-06T10:15:08.157Z,1020.00
2018-07-06T10:16:08.984Z,1020.07
2018-07-06T10:17:08.046Z,1020.03
2018-07-06T10:19:18.323Z,1020.10
2018-07-06T10:20:19.313Z,1020.03
2018-07-06T10:21:43.439Z,1020.12
2018-07-06T10:22:41.596Z,1020.05
2018-07-06T10:24:01.879Z,1020.03
2018-07-06T10:24:41.236Z,1020.06
2018-07-06T10:25:41.212Z,1020.13
2018-07-06T10:26:45.794Z,1020.13
2018-07-06T10:27:42.896Z,1020.12
2018-07-06T10:28:41.913Z,1020.07
2018-07-06T10:29:40.981Z,1020.12
2018-07-06T10:31:02.393Z,1020.04
2018-07-06T10:32:02.870Z,1020.04
2018-07-06T10:33:02.512Z,1020.03
2018-07-06T10:34:02.438Z,1020.00
2018-07-06T10:35:02.339Z,1020.00
2018-07-06T10:36:26.128Z,1019.96
2018-07-06T10:37:26.766Z,1020.02
2018-07-06T10:38:26.856Z,1020.00
2018-07-06T10:39:26.694Z,1020.05
2018-07-06T10:40:26.530Z,1020.04
2018-07-06T10:41:27.380Z,1019.96
2018-07-06T10:42:27.202Z,1020.06
2018-07-06T10:43:26.892Z,1020.06
2018-07-06T10:44:48.166Z,1020.04
2018-07-06T10:45:48.789Z,1020.01
2018-07-06T10:46:48.761Z,1020.00
2018-07-06T10:47:48.527Z,1020.02
2018-07-06T10:48:49.098Z,1020.06
2018-07-06T10:49:49.026Z,1020.09
2018-07-06T10:50:48.719Z,1020.18
2018-07-06T10:51:48.691Z,1020.11
2018-07-06T10:52:49.175Z,1020.17
2018-07-06T10:53:49.105Z,1020.08
2018-07-06T10:54:48.876Z,1020.15
2018-07-06T10:55:48.421Z,1020.11
2018-07-06T10:56:48.928Z,1020.06
2018-07-06T10:57:49.792Z,1020.05
2018-07-06T10:58:48.536Z,1020.09
2018-07-06T10:59:48.024Z,1020.12
2018-07-06T11:00:48.589Z,1020.09
2018-07-06T11:02:09.844Z,1020.03
2018-07-06T11:03:32.880Z,1020.07
2018-07-06T11:04:33.593Z,1020.03
2018-07-06T11:05:34.119Z,1020.06
2018-07-06T11:06:33.851Z,1020.06
2018-07-06T11:07:33.656Z,1020.04
2018-07-06T11:08:34.029Z,1020.08
2018-07-06T11:09:55.178Z,1020.05
2018-07-06T11:10:55.794Z,1020.07
2018-07-06T11:11:55.780Z,1020.07
2018-07-06T11:12:55.567Z,1020.02
2018-07-06T11:13:55.492Z,1020.05
2018-07-06T11:14:56.132Z,1020.09
2018-07-06T11:15:57.375Z,1020.09
2018-07-06T11:16:54.979Z,1020.09
2018-07-06T11:17:55.975Z,1020.08
2018-07-06T11:18:56.500Z,1020.13
2018-07-06T11:19:55.164Z,1020.16
2018-07-06T11:20:55.734Z,1020.17
2018-07-06T11:21:56.531Z,1020.13
2018-07-06T11:23:16.875Z,1020.11
2018-07-06T11:24:19.278Z,1020.12
2018-07-06T11:25:17.641Z,1020.10
2018-07-06T11:26:17.338Z,1020.09
2018-07-06T11:27:17.239Z,1020.11
2018-07-06T11:28:17.038Z,1020.12
2018-07-06T11:29:17.576Z,1020.06
2018-07-06T11:30:17.476Z,1020.12
2018-07-06T11:31:17.044Z,1020.07
2018-07-06T11:32:16.971Z,1020.15
2018-07-06T11:33:18.034Z,1020.01
2018-07-06T11:34:17.606Z,1020.12
2018-07-06T11:35:17.169Z,1020.18
2018-07-06T11:37:01.829Z,1020.13
2018-07-06T11:38:02.718Z,1020.14
2018-07-06T11:39:01.816Z,1020.11
2018-07-06T11:40:00.539Z,1020.11
2018-07-06T11:41:01.212Z,1020.07
2018-07-06T11:42:00.681Z,1020.11
2018-07-06T11:43:01.494Z,1020.14
2018-07-06T11:45:09.088Z,1020.12
2018-07-06T11:46:08.908Z,1020.16
2018-07-06T11:47:09.862Z,1020.11
2018-07-06T11:48:09.376Z,1020.13
2018-07-06T11:49:09.006Z,1020.14
2018-07-06T11:50:32.230Z,1020.13
2018-07-06T11:51:56.048Z,1020.12
2018-07-06T11:52:55.642Z,1020.23
2018-07-06T11:53:54.753Z,1020.12
2018-07-06T11:54:55.884Z,1020.17
2018-07-06T11:56:38.858Z,1020.13
2018-07-06T11:57:40.341Z,1020.15
2018-07-06T11:58:39.118Z,1020.16
2018-07-06T11:59:38.878Z,1020.13
2018-07-06T12:00:39.520Z,1020.15
2018-07-06T12:01:39.104Z,1020.11
2018-07-06T12:02:42.363Z,1020.13
2018-07-06T12:03:38.896Z,1020.17
2018-07-06T12:04:39.524Z,1020.19
2018-07-06T12:05:39.789Z,1020.16
2018-07-06T12:07:01.551Z,1020.14
2018-07-06T12:08:01.151Z,1020.09
2018-07-06T12:09:01.732Z,1020.08
2018-07-06T12:10:01.400Z,1019.90
2018-07-06T12:11:01.461Z,1020.18
2018-07-06T12:12:01.169Z,1020.13
2018-07-06T12:13:02.100Z,1020.13
2018-07-06T12:14:01.924Z,1020.15
2018-07-06T12:15:01.381Z,1020.11
2018-07-06T12:16:02.031Z,1020.11
2018-07-06T12:17:01.751Z,1020.07
2018-07-06T12:18:01.777Z,1020.07
2018-07-06T12:19:02.431Z,1020.05
2018-07-06T12:20:01.263Z,1020.12
2018-07-06T12:21:01.887Z,1020.17
2018-07-06T12:22:02.051Z,1020.11
2018-07-06T12:23:01.909Z,1020.11
2018-07-06T12:24:01.636Z,1020.18
2018-07-06T12:25:01.673Z,1020.23
2018-07-06T12:26:01.681Z,1020.11
2018-07-06T12:27:01.461Z,1020.25
2018-07-06T12:28:01.257Z,1020.27
2018-07-06T12:29:02.651Z,1020.18
2018-07-06T12:30:01.409Z,1020.18
2018-07-06T12:31:02.177Z,1020.21
2018-07-06T12:32:01.954Z,1020.16
2018-07-06T12:33:01.737Z,1020.07
2018-07-06T12:34:01.450Z,1020.06
2018-07-06T12:35:01.761Z,1020.12
2018-07-06T12:36:02.876Z,1020.14
2018-07-06T12:37:03.164Z,1020.12
2018-07-06T12:38:01.933Z,1020.13
2018-07-06T12:39:02.903Z,1020.11
2018-07-06T12:40:02.816Z,1020.11
2018-07-06T12:41:01.846Z,1020.06
2018-07-06T12:42:01.776Z,1019.97
2018-07-06T12:43:09.566Z,1020.16
2018-07-06T12:44:06.382Z,1020.16
2018-07-06T12:45:04.862Z,1020.09
2018-07-06T12:46:02.003Z,1020.14